sensor_id;sensor_type;location;lat;lon;timestamp;P1;durP1;ratioP1;P2;durP2;ratioP2
52414;SDS011;38340;52.964;6.086;2022-10-22T00:01:11;17.08;;;9.15;;
52414;SDS011;38340;52.964;6.086;2022-10-22T00:03:37;13.57;;;9.00;;
52414;SDS011;38340;52.964;6.086;2022-10-22T00:06:03;12.93;;;8.63;;
52414;SDS011;38340;52.964;6.086;2022-10-22T00:08:29;13.02;;;8.98;;
52414;SDS011;38340;52.964;6.086;2022-10-22T00:10:55;12.30;;;8.85;;
52414;SDS011;38340;52.964;6.086;2022-10-22T00:13:21;16.45;;;9.02;;
52414;SDS011;38340;52.964;6.086;2022-10-22T00:15:47;14.38;;;8.68;;
52414;SDS011;38340;52.964;6.086;2022-10-22T00:18:12;13.45;;;8.82;;
52414;SDS011;38340;52.964;6.086;2022-10-22T00:20:38;16.10;;;9.00;;
52414;SDS011;38340;52.964;6.086;2022-10-22T00:23:04;16.58;;;8.77;;
52414;SDS011;38340;52.964;6.086;2022-10-22T00:25:30;11.07;;;8.60;;
52414;SDS011;38340;52.964;6.086;2022-10-22T00:27:58;13.77;;;8.35;;
52414;SDS011;38340;52.964;6.086;2022-10-22T00:30:23;14.88;;;8.60;;
52414;SDS011;38340;52.964;6.086;2022-10-22T00:32:49;10.45;;;8.38;;
52414;SDS011;38340;52.964;6.086;2022-10-22T00:35:15;11.57;;;8.38;;
52414;SDS011;38340;52.964;6.086;2022-10-22T00:37:40;13.30;;;8.25;;
52414;SDS011;38340;52.964;6.086;2022-10-22T00:40:06;12.35;;;7.90;;
52414;SDS011;38340;52.964;6.086;2022-10-22T00:42:32;13.48;;;8.63;;
52414;SDS011;38340;52.964;6.086;2022-10-22T00:47:40;14.73;;;9.10;;
52414;SDS011;38340;52.964;6.086;2022-10-22T00:50:11;12.93;;;8.60;;
52414;SDS011;38340;52.964;6.086;2022-10-22T00:52:42;13.50;;;8.57;;
52414;SDS011;38340;52.964;6.086;2022-10-22T00:55:08;14.75;;;8.43;;
52414;SDS011;38340;52.964;6.086;2022-10-22T00:57:35;14.57;;;8.82;;
52414;SDS011;38340;52.964;6.086;2022-10-22T01:00:01;17.20;;;8.40;;
52414;SDS011;38340;52.964;6.086;2022-10-22T01:02:28;12.75;;;8.90;;
52414;SDS011;38340;52.964;6.086;2022-10-22T01:04:54;12.68;;;8.30;;
52414;SDS011;38340;52.964;6.086;2022-10-22T01:07:20;13.00;;;8.40;;
52414;SDS011;38340;52.964;6.086;2022-10-22T01:15:25;12.65;;;8.45;;
52414;SDS011;38340;52.964;6.086;2022-10-22T01:21:02;17.15;;;10.43;;
52414;SDS011;38340;52.964;6.086;2022-10-22T01:24:32;11.82;;;8.57;;
52414;SDS011;38340;52.964;6.086;2022-10-22T01:31:50;20.52;;;9.13;;
52414;SDS011;38340;52.964;6.086;2022-10-22T01:34:25;16.88;;;9.15;;
52414;SDS011;38340;52.964;6.086;2022-10-22T01:36:53;14.68;;;9.63;;
52414;SDS011;38340;52.964;6.086;2022-10-22T01:39:20;11.02;;;8.63;;
52414;SDS011;38340;52.964;6.086;2022-10-22T01:41:47;11.20;;;8.40;;
52414;SDS011;38340;52.964;6.086;2022-10-22T01:44:23;18.90;;;9.30;;
52414;SDS011;38340;52.964;6.086;2022-10-22T01:46:57;17.15;;;9.00;;
52414;SDS011;38340;52.964;6.086;2022-10-22T02:00:49;12.60;;;8.60;;
52414;SDS011;38340;52.964;6.086;2022-10-22T02:03:25;13.73;;;9.43;;
52414;SDS011;38340;52.964;6.086;2022-10-22T02:06:04;19.95;;;9.50;;
52414;SDS011;38340;52.964;6.086;2022-10-22T02:08:37;11.80;;;8.55;;
52414;SDS011;38340;52.964;6.086;2022-10-22T02:11:04;13.98;;;9.20;;
52414;SDS011;38340;52.964;6.086;2022-10-22T02:13:32;14.88;;;9.20;;
52414;SDS011;38340;52.964;6.086;2022-10-22T02:16:04;15.63;;;8.82;;
52414;SDS011;38340;52.964;6.086;2022-10-22T02:18:32;14.98;;;9.00;;
52414;SDS011;38340;52.964;6.086;2022-10-22T02:20:59;13.60;;;8.13;;
52414;SDS011;38340;52.964;6.086;2022-10-22T02:23:26;11.68;;;8.05;;
52414;SDS011;38340;52.964;6.086;2022-10-22T02:25:59;16.63;;;8.82;;
52414;SDS011;38340;52.964;6.086;2022-10-22T02:28:51;11.25;;;8.13;;
52414;SDS011;38340;52.964;6.086;2022-10-22T02:31:25;12.75;;;8.38;;
52414;SDS011;38340;52.964;6.086;2022-10-22T02:33:53;16.52;;;8.50;;
52414;SDS011;38340;52.964;6.086;2022-10-22T02:36:22;13.38;;;8.07;;
52414;SDS011;38340;52.964;6.086;2022-10-22T02:38:49;14.93;;;8.50;;
52414;SDS011;38340;52.964;6.086;2022-10-22T02:41:16;15.57;;;8.77;;
52414;SDS011;38340;52.964;6.086;2022-10-22T02:43:44;12.65;;;7.78;;
52414;SDS011;38340;52.964;6.086;2022-10-22T02:46:14;17.63;;;8.48;;
52414;SDS011;38340;52.964;6.086;2022-10-22T02:48:40;17.70;;;7.85;;
52414;SDS011;38340;52.964;6.086;2022-10-22T02:51:06;16.63;;;8.55;;
52414;SDS011;38340;52.964;6.086;2022-10-22T02:53:32;11.32;;;7.95;;
52414;SDS011;38340;52.964;6.086;2022-10-22T02:55:58;13.52;;;8.18;;
52414;SDS011;38340;52.964;6.086;2022-10-22T02:58:24;13.55;;;8.85;;
52414;SDS011;38340;52.964;6.086;2022-10-22T03:00:49;14.48;;;7.80;;
52414;SDS011;38340;52.964;6.086;2022-10-22T03:03:15;13.98;;;8.00;;
52414;SDS011;38340;52.964;6.086;2022-10-22T03:05:41;16.23;;;8.65;;
52414;SDS011;38340;52.964;6.086;2022-10-22T03:08:06;12.77;;;8.20;;
52414;SDS011;38340;52.964;6.086;2022-10-22T03:10:32;14.57;;;9.02;;
52414;SDS011;38340;52.964;6.086;2022-10-22T03:12:58;14.95;;;8.40;;
52414;SDS011;38340;52.964;6.086;2022-10-22T03:15:24;14.27;;;8.82;;
52414;SDS011;38340;52.964;6.086;2022-10-22T03:17:49;12.48;;;8.25;;
52414;SDS011;38340;52.964;6.086;2022-10-22T03:20:15;16.08;;;8.30;;
52414;SDS011;38340;52.964;6.086;2022-10-22T03:22:41;14.85;;;8.10;;
52414;SDS011;38340;52.964;6.086;2022-10-22T03:25:09;12.90;;;7.57;;
52414;SDS011;38340;52.964;6.086;2022-10-22T03:27:37;16.45;;;8.38;;
52414;SDS011;38340;52.964;6.086;2022-10-22T03:30:04;15.60;;;7.93;;
52414;SDS011;38340;52.964;6.086;2022-10-22T03:32:31;17.02;;;8.50;;
52414;SDS011;38340;52.964;6.086;2022-10-22T03:34:57;15.80;;;8.65;;
52414;SDS011;38340;52.964;6.086;2022-10-22T03:37:23;15.00;;;7.57;;
52414;SDS011;38340;52.964;6.086;2022-10-22T03:39:50;10.73;;;7.78;;
52414;SDS011;38340;52.964;6.086;2022-10-22T03:42:16;15.40;;;7.68;;
52414;SDS011;38340;52.964;6.086;2022-10-22T03:44:42;19.40;;;8.75;;
52414;SDS011;38340;52.964;6.086;2022-10-22T03:47:08;14.70;;;8.35;;
52414;SDS011;38340;52.964;6.086;2022-10-22T03:49:34;13.88;;;8.05;;
52414;SDS011;38340;52.964;6.086;2022-10-22T03:52:08;12.75;;;8.27;;
52414;SDS011;38340;52.964;6.086;2022-10-22T03:54:35;19.50;;;9.27;;
52414;SDS011;38340;52.964;6.086;2022-10-22T03:57:02;15.15;;;8.48;;
52414;SDS011;38340;52.964;6.086;2022-10-22T03:59:32;14.25;;;8.27;;
52414;SDS011;38340;52.964;6.086;2022-10-22T04:02:00;16.52;;;8.45;;
52414;SDS011;38340;52.964;6.086;2022-10-22T04:04:25;14.88;;;8.52;;
52414;SDS011;38340;52.964;6.086;2022-10-22T04:06:51;18.98;;;8.25;;
52414;SDS011;38340;52.964;6.086;2022-10-22T04:09:17;14.07;;;8.70;;
52414;SDS011;38340;52.964;6.086;2022-10-22T04:11:42;14.85;;;8.50;;
52414;SDS011;38340;52.964;6.086;2022-10-22T04:14:08;14.32;;;8.68;;
52414;SDS011;38340;52.964;6.086;2022-10-22T04:16:36;14.68;;;8.63;;
52414;SDS011;38340;52.964;6.086;2022-10-22T04:19:04;22.30;;;9.32;;
52414;SDS011;38340;52.964;6.086;2022-10-22T04:21:30;12.02;;;8.35;;
52414;SDS011;38340;52.964;6.086;2022-10-22T04:23:55;15.38;;;8.73;;
52414;SDS011;38340;52.964;6.086;2022-10-22T04:26:21;17.17;;;8.43;;
52414;SDS011;38340;52.964;6.086;2022-10-22T04:28:48;15.35;;;8.88;;
52414;SDS011;38340;52.964;6.086;2022-10-22T04:31:16;12.75;;;8.52;;
52414;SDS011;38340;52.964;6.086;2022-10-22T04:33:43;15.45;;;8.75;;
52414;SDS011;38340;52.964;6.086;2022-10-22T04:36:10;17.02;;;9.63;;
52414;SDS011;38340;52.964;6.086;2022-10-22T04:38:41;12.95;;;8.60;;
52414;SDS011;38340;52.964;6.086;2022-10-22T04:41:15;15.75;;;9.07;;
52414;SDS011;38340;52.964;6.086;2022-10-22T04:43:44;17.80;;;8.95;;
52414;SDS011;38340;52.964;6.086;2022-10-22T04:46:11;12.85;;;8.85;;
52414;SDS011;38340;52.964;6.086;2022-10-22T04:48:38;13.85;;;8.27;;
52414;SDS011;38340;52.964;6.086;2022-10-22T04:51:06;14.85;;;8.63;;
52414;SDS011;38340;52.964;6.086;2022-10-22T04:53:33;12.65;;;7.68;;
52414;SDS011;38340;52.964;6.086;2022-10-22T04:56:05;15.70;;;9.73;;
52414;SDS011;38340;52.964;6.086;2022-10-22T04:58:33;12.45;;;9.20;;
52414;SDS011;38340;52.964;6.086;2022-10-22T05:00:58;22.67;;;9.43;;
52414;SDS011;38340;52.964;6.086;2022-10-22T05:03:24;19.48;;;9.38;;
52414;SDS011;38340;52.964;6.086;2022-10-22T05:05:50;15.43;;;9.45;;
52414;SDS011;38340;52.964;6.086;2022-10-22T05:08:15;15.93;;;8.85;;
52414;SDS011;38340;52.964;6.086;2022-10-22T05:10:41;13.10;;;8.75;;
52414;SDS011;38340;52.964;6.086;2022-10-22T05:13:07;17.48;;;8.23;;
52414;SDS011;38340;52.964;6.086;2022-10-22T05:15:32;13.95;;;8.10;;
52414;SDS011;38340;52.964;6.086;2022-10-22T05:17:58;12.52;;;8.25;;
52414;SDS011;38340;52.964;6.086;2022-10-22T05:20:24;13.18;;;7.95;;
52414;SDS011;38340;52.964;6.086;2022-10-22T05:22:50;13.48;;;8.02;;
52414;SDS011;38340;52.964;6.086;2022-10-22T05:25:15;14.25;;;8.15;;
52414;SDS011;38340;52.964;6.086;2022-10-22T05:27:41;14.13;;;7.60;;
52414;SDS011;38340;52.964;6.086;2022-10-22T05:30:07;13.45;;;8.65;;
52414;SDS011;38340;52.964;6.086;2022-10-22T05:32:33;15.32;;;8.50;;
52414;SDS011;38340;52.964;6.086;2022-10-22T05:34:59;17.55;;;8.45;;
52414;SDS011;38340;52.964;6.086;2022-10-22T05:37:25;13.77;;;8.27;;
52414;SDS011;38340;52.964;6.086;2022-10-22T05:39:51;13.65;;;7.85;;
52414;SDS011;38340;52.964;6.086;2022-10-22T05:42:16;12.13;;;8.23;;
52414;SDS011;38340;52.964;6.086;2022-10-22T05:44:42;18.65;;;8.75;;
52414;SDS011;38340;52.964;6.086;2022-10-22T05:47:08;12.00;;;8.80;;
52414;SDS011;38340;52.964;6.086;2022-10-22T05:49:34;15.77;;;7.97;;
52414;SDS011;38340;52.964;6.086;2022-10-22T05:51:59;19.45;;;9.02;;
52414;SDS011;38340;52.964;6.086;2022-10-22T05:54:25;14.52;;;8.20;;
52414;SDS011;38340;52.964;6.086;2022-10-22T05:56:51;15.57;;;8.05;;
52414;SDS011;38340;52.964;6.086;2022-10-22T05:59:16;19.85;;;8.30;;
52414;SDS011;38340;52.964;6.086;2022-10-22T06:01:42;14.93;;;8.77;;
52414;SDS011;38340;52.964;6.086;2022-10-22T06:04:09;15.27;;;8.38;;
52414;SDS011;38340;52.964;6.086;2022-10-22T06:06:38;13.68;;;8.80;;
52414;SDS011;38340;52.964;6.086;2022-10-22T06:09:12;20.20;;;8.75;;
52414;SDS011;38340;52.964;6.086;2022-10-22T06:11:39;18.20;;;9.23;;
52414;SDS011;38340;52.964;6.086;2022-10-22T06:14:04;16.15;;;8.52;;
52414;SDS011;38340;52.964;6.086;2022-10-22T06:16:30;18.92;;;8.02;;
52414;SDS011;38340;52.964;6.086;2022-10-22T06:18:59;17.40;;;8.05;;
52414;SDS011;38340;52.964;6.086;2022-10-22T06:21:26;17.38;;;8.65;;
52414;SDS011;38340;52.964;6.086;2022-10-22T06:23:54;18.45;;;8.80;;
52414;SDS011;38340;52.964;6.086;2022-10-22T06:26:20;13.63;;;9.13;;
52414;SDS011;38340;52.964;6.086;2022-10-22T06:28:46;12.18;;;8.35;;
52414;SDS011;38340;52.964;6.086;2022-10-22T06:31:12;16.13;;;8.50;;
52414;SDS011;38340;52.964;6.086;2022-10-22T06:33:38;18.27;;;9.15;;
52414;SDS011;38340;52.964;6.086;2022-10-22T06:38:35;43.75;;;10.70;;
52414;SDS011;38340;52.964;6.086;2022-10-22T06:41:01;137.73;;;20.48;;
52414;SDS011;38340;52.964;6.086;2022-10-22T06:43:30;60.22;;;12.82;;
52414;SDS011;38340;52.964;6.086;2022-10-22T06:46:03;17.23;;;8.30;;
52414;SDS011;38340;52.964;6.086;2022-10-22T06:48:31;22.73;;;9.10;;
52414;SDS011;38340;52.964;6.086;2022-10-22T06:51:01;14.63;;;8.52;;
52414;SDS011;38340;52.964;6.086;2022-10-22T06:53:28;16.80;;;8.68;;
52414;SDS011;38340;52.964;6.086;2022-10-22T06:55:54;16.23;;;9.43;;
52414;SDS011;38340;52.964;6.086;2022-10-22T06:58:20;16.75;;;8.70;;
52414;SDS011;38340;52.964;6.086;2022-10-22T07:00:45;13.90;;;8.25;;
52414;SDS011;38340;52.964;6.086;2022-10-22T07:03:11;14.32;;;8.48;;
52414;SDS011;38340;52.964;6.086;2022-10-22T07:05:38;14.07;;;8.55;;
52414;SDS011;38340;52.964;6.086;2022-10-22T07:08:04;15.95;;;8.40;;
52414;SDS011;38340;52.964;6.086;2022-10-22T07:10:30;14.23;;;8.38;;
52414;SDS011;38340;52.964;6.086;2022-10-22T07:12:56;13.20;;;7.88;;
52414;SDS011;38340;52.964;6.086;2022-10-22T07:15:22;11.18;;;7.35;;
52414;SDS011;38340;52.964;6.086;2022-10-22T07:17:48;13.98;;;8.43;;
52414;SDS011;38340;52.964;6.086;2022-10-22T07:20:15;15.82;;;7.82;;
52414;SDS011;38340;52.964;6.086;2022-10-22T07:22:43;14.15;;;7.53;;
52414;SDS011;38340;52.964;6.086;2022-10-22T07:25:09;18.65;;;9.07;;
52414;SDS011;38340;52.964;6.086;2022-10-22T07:27:35;17.05;;;8.07;;
52414;SDS011;38340;52.964;6.086;2022-10-22T07:30:01;17.65;;;8.52;;
52414;SDS011;38340;52.964;6.086;2022-10-22T07:32:27;17.83;;;8.00;;
52414;SDS011;38340;52.964;6.086;2022-10-22T07:34:52;13.98;;;7.28;;
52414;SDS011;38340;52.964;6.086;2022-10-22T07:37:18;15.43;;;8.13;;
52414;SDS011;38340;52.964;6.086;2022-10-22T07:39:46;16.98;;;7.85;;
52414;SDS011;38340;52.964;6.086;2022-10-22T07:42:12;14.43;;;7.47;;
52414;SDS011;38340;52.964;6.086;2022-10-22T07:44:38;12.00;;;7.22;;
52414;SDS011;38340;52.964;6.086;2022-10-22T07:47:04;18.15;;;7.40;;
52414;SDS011;38340;52.964;6.086;2022-10-22T07:49:29;16.30;;;8.38;;
52414;SDS011;38340;52.964;6.086;2022-10-22T07:51:55;14.85;;;8.30;;
52414;SDS011;38340;52.964;6.086;2022-10-22T07:54:21;16.38;;;7.97;;
52414;SDS011;38340;52.964;6.086;2022-10-22T07:56:47;14.88;;;8.10;;
52414;SDS011;38340;52.964;6.086;2022-10-22T07:59:13;14.70;;;8.10;;
52414;SDS011;38340;52.964;6.086;2022-10-22T08:01:39;19.63;;;8.02;;
52414;SDS011;38340;52.964;6.086;2022-10-22T08:04:04;12.95;;;6.80;;
52414;SDS011;38340;52.964;6.086;2022-10-22T08:06:32;15.23;;;7.60;;
52414;SDS011;38340;52.964;6.086;2022-10-22T08:08:58;16.77;;;8.63;;
52414;SDS011;38340;52.964;6.086;2022-10-22T08:11:24;17.85;;;7.85;;
52414;SDS011;38340;52.964;6.086;2022-10-22T08:13:51;10.38;;;7.95;;
52414;SDS011;38340;52.964;6.086;2022-10-22T08:16:17;14.60;;;7.75;;
52414;SDS011;38340;52.964;6.086;2022-10-22T08:18:43;15.32;;;7.93;;
52414;SDS011;38340;52.964;6.086;2022-10-22T08:21:10;16.23;;;7.40;;
52414;SDS011;38340;52.964;6.086;2022-10-22T08:23:36;14.70;;;7.80;;
52414;SDS011;38340;52.964;6.086;2022-10-22T08:26:02;15.82;;;8.15;;
52414;SDS011;38340;52.964;6.086;2022-10-22T08:28:29;15.02;;;7.38;;
52414;SDS011;38340;52.964;6.086;2022-10-22T08:30:56;17.42;;;7.55;;
52414;SDS011;38340;52.964;6.086;2022-10-22T08:33:22;15.93;;;7.28;;
52414;SDS011;38340;52.964;6.086;2022-10-22T08:35:51;13.88;;;7.00;;
52414;SDS011;38340;52.964;6.086;2022-10-22T08:38:17;17.95;;;6.97;;
52414;SDS011;38340;52.964;6.086;2022-10-22T08:40:46;16.33;;;7.05;;
52414;SDS011;38340;52.964;6.086;2022-10-22T08:49:23;22.13;;;8.98;;
52414;SDS011;38340;52.964;6.086;2022-10-22T08:51:56;17.52;;;6.88;;
52414;SDS011;38340;52.964;6.086;2022-10-22T09:07:57;10.48;;;6.30;;
52414;SDS011;38340;52.964;6.086;2022-10-22T09:10:28;10.38;;;5.57;;
52414;SDS011;38340;52.964;6.086;2022-10-22T09:12:58;14.30;;;4.95;;
52414;SDS011;38340;52.964;6.086;2022-10-22T09:15:24;14.18;;;5.22;;
52414;SDS011;38340;52.964;6.086;2022-10-22T09:20:27;11.48;;;5.28;;
52414;SDS011;38340;52.964;6.086;2022-10-22T09:26:00;16.77;;;6.68;;
52414;SDS011;38340;52.964;6.086;2022-10-22T09:28:26;12.13;;;6.68;;
52414;SDS011;38340;52.964;6.086;2022-10-22T09:30:52;13.45;;;5.30;;
52414;SDS011;38340;52.964;6.086;2022-10-22T09:33:23;13.57;;;4.88;;
52414;SDS011;38340;52.964;6.086;2022-10-22T09:35:54;13.20;;;5.60;;
52414;SDS011;38340;52.964;6.086;2022-10-22T09:38:31;12.13;;;5.40;;
52414;SDS011;38340;52.964;6.086;2022-10-22T09:41:02;12.13;;;5.72;;
52414;SDS011;38340;52.964;6.086;2022-10-22T09:43:29;13.15;;;5.53;;
52414;SDS011;38340;52.964;6.086;2022-10-22T09:45:57;19.02;;;8.38;;
52414;SDS011;38340;52.964;6.086;2022-10-22T09:48:28;34.03;;;16.45;;
52414;SDS011;38340;52.964;6.086;2022-10-22T09:50:58;13.20;;;7.93;;
52414;SDS011;38340;52.964;6.086;2022-10-22T09:53:34;13.90;;;6.07;;
52414;SDS011;38340;52.964;6.086;2022-10-22T09:56:07;13.23;;;7.47;;
52414;SDS011;38340;52.964;6.086;2022-10-22T09:58:54;15.57;;;5.55;;
52414;SDS011;38340;52.964;6.086;2022-10-22T10:01:26;12.20;;;5.97;;
52414;SDS011;38340;52.964;6.086;2022-10-22T10:04:04;11.25;;;5.70;;
52414;SDS011;38340;52.964;6.086;2022-10-22T10:06:32;11.07;;;5.23;;
52414;SDS011;38340;52.964;6.086;2022-10-22T10:08:59;14.75;;;5.88;;
52414;SDS011;38340;52.964;6.086;2022-10-22T10:11:36;14.07;;;6.20;;
52414;SDS011;38340;52.964;6.086;2022-10-22T10:14:17;15.63;;;7.28;;
52414;SDS011;38340;52.964;6.086;2022-10-22T10:19:43;12.85;;;5.72;;
52414;SDS011;38340;52.964;6.086;2022-10-22T10:22:29;15.65;;;6.65;;
52414;SDS011;38340;52.964;6.086;2022-10-22T10:28:38;15.25;;;7.22;;
52414;SDS011;38340;52.964;6.086;2022-10-22T10:36:39;14.73;;;7.05;;
52414;SDS011;38340;52.964;6.086;2022-10-22T10:42:05;16.95;;;6.75;;
52414;SDS011;38340;52.964;6.086;2022-10-22T10:45:05;14.50;;;7.10;;
52414;SDS011;38340;52.964;6.086;2022-10-22T11:02:37;13.80;;;7.93;;
52414;SDS011;38340;52.964;6.086;2022-10-22T11:04:53;19.48;;;8.68;;
52414;SDS011;38340;52.964;6.086;2022-10-22T11:07:30;14.13;;;7.63;;
52414;SDS011;38340;52.964;6.086;2022-10-22T11:10:12;21.15;;;8.18;;
52414;SDS011;38340;52.964;6.086;2022-10-22T11:12:44;14.93;;;8.13;;
52414;SDS011;38340;52.964;6.086;2022-10-22T11:18:19;18.40;;;8.65;;
52414;SDS011;38340;52.964;6.086;2022-10-22T11:21:06;11.93;;;8.05;;
52414;SDS011;38340;52.964;6.086;2022-10-22T11:23:38;17.13;;;7.53;;
52414;SDS011;38340;52.964;6.086;2022-10-22T11:26:05;18.85;;;7.47;;
52414;SDS011;38340;52.964;6.086;2022-10-22T11:28:41;13.32;;;7.18;;
52414;SDS011;38340;52.964;6.086;2022-10-22T11:31:12;17.45;;;8.23;;
52414;SDS011;38340;52.964;6.086;2022-10-22T11:36:14;15.38;;;7.63;;
52414;SDS011;38340;52.964;6.086;2022-10-22T11:38:42;16.75;;;7.90;;
52414;SDS011;38340;52.964;6.086;2022-10-22T11:41:10;11.57;;;7.35;;
52414;SDS011;38340;52.964;6.086;2022-10-22T11:48:59;14.07;;;6.60;;
52414;SDS011;38340;52.964;6.086;2022-10-22T11:51:37;17.38;;;6.78;;
52414;SDS011;38340;52.964;6.086;2022-10-22T12:05:31;13.18;;;5.38;;
52414;SDS011;38340;52.964;6.086;2022-10-22T12:08:13;8.25;;;4.82;;
52414;SDS011;38340;52.964;6.086;2022-10-22T12:10:59;12.43;;;5.18;;
52414;SDS011;38340;52.964;6.086;2022-10-22T12:13:27;9.35;;;4.60;;
52414;SDS011;38340;52.964;6.086;2022-10-22T12:16:00;9.98;;;5.00;;
52414;SDS011;38340;52.964;6.086;2022-10-22T12:18:32;20.38;;;5.68;;
52414;SDS011;38340;52.964;6.086;2022-10-22T12:21:02;9.80;;;4.88;;
52414;SDS011;38340;52.964;6.086;2022-10-22T12:23:31;12.48;;;5.20;;
52414;SDS011;38340;52.964;6.086;2022-10-22T12:25:59;12.15;;;4.70;;
52414;SDS011;38340;52.964;6.086;2022-10-22T12:28:24;12.63;;;4.97;;
52414;SDS011;38340;52.964;6.086;2022-10-22T12:30:50;13.57;;;4.70;;
52414;SDS011;38340;52.964;6.086;2022-10-22T12:33:22;7.55;;;4.18;;
52414;SDS011;38340;52.964;6.086;2022-10-22T12:35:49;9.07;;;4.07;;
52414;SDS011;38340;52.964;6.086;2022-10-22T12:38:19;9.27;;;3.95;;
52414;SDS011;38340;52.964;6.086;2022-10-22T12:40:47;11.15;;;3.83;;
52414;SDS011;38340;52.964;6.086;2022-10-22T12:43:29;10.57;;;3.63;;
52414;SDS011;38340;52.964;6.086;2022-10-22T12:45:56;11.93;;;3.80;;
52414;SDS011;38340;52.964;6.086;2022-10-22T12:48:27;13.45;;;3.90;;
52414;SDS011;38340;52.964;6.086;2022-10-22T12:51:00;10.40;;;2.90;;
52414;SDS011;38340;52.964;6.086;2022-10-22T12:53:34;7.40;;;2.70;;
52414;SDS011;38340;52.964;6.086;2022-10-22T12:56:04;10.93;;;3.78;;
52414;SDS011;38340;52.964;6.086;2022-10-22T12:58:42;8.80;;;2.78;;
52414;SDS011;38340;52.964;6.086;2022-10-22T13:01:13;8.77;;;2.60;;
52414;SDS011;38340;52.964;6.086;2022-10-22T13:03:42;11.70;;;3.17;;
52414;SDS011;38340;52.964;6.086;2022-10-22T13:06:20;6.75;;;2.35;;
52414;SDS011;38340;52.964;6.086;2022-10-22T13:09:02;13.75;;;2.80;;
52414;SDS011;38340;52.964;6.086;2022-10-22T13:14:35;5.90;;;2.65;;
52414;SDS011;38340;52.964;6.086;2022-10-22T13:17:03;7.70;;;2.55;;
52414;SDS011;38340;52.964;6.086;2022-10-22T13:25:17;8.43;;;2.10;;
52414;SDS011;38340;52.964;6.086;2022-10-22T13:27:52;6.00;;;2.47;;
52414;SDS011;38340;52.964;6.086;2022-10-22T13:30:25;8.13;;;2.75;;
52414;SDS011;38340;52.964;6.086;2022-10-22T13:32:55;7.68;;;2.85;;
52414;SDS011;38340;52.964;6.086;2022-10-22T13:35:26;7.40;;;2.53;;
52414;SDS011;38340;52.964;6.086;2022-10-22T13:37:54;6.20;;;2.22;;
52414;SDS011;38340;52.964;6.086;2022-10-22T13:40:20;8.57;;;2.17;;
52414;SDS011;38340;52.964;6.086;2022-10-22T13:42:46;8.73;;;2.60;;
52414;SDS011;38340;52.964;6.086;2022-10-22T13:45:12;5.78;;;1.77;;
52414;SDS011;38340;52.964;6.086;2022-10-22T13:47:38;13.90;;;2.78;;
52414;SDS011;38340;52.964;6.086;2022-10-22T13:50:12;7.57;;;2.67;;
52414;SDS011;38340;52.964;6.086;2022-10-22T13:52:44;11.10;;;2.55;;
52414;SDS011;38340;52.964;6.086;2022-10-22T13:55:32;10.40;;;2.78;;
52414;SDS011;38340;52.964;6.086;2022-10-22T13:58:05;6.95;;;2.40;;
52414;SDS011;38340;52.964;6.086;2022-10-22T14:00:35;7.50;;;2.15;;
52414;SDS011;38340;52.964;6.086;2022-10-22T14:03:03;5.82;;;2.30;;
52414;SDS011;38340;52.964;6.086;2022-10-22T14:05:29;9.15;;;2.50;;
52414;SDS011;38340;52.964;6.086;2022-10-22T14:07:59;8.77;;;2.92;;
52414;SDS011;38340;52.964;6.086;2022-10-22T14:10:26;11.93;;;2.78;;
52414;SDS011;38340;52.964;6.086;2022-10-22T14:12:52;6.15;;;2.25;;
52414;SDS011;38340;52.964;6.086;2022-10-22T14:15:19;6.38;;;2.20;;
52414;SDS011;38340;52.964;6.086;2022-10-22T14:17:50;13.65;;;2.92;;
52414;SDS011;38340;52.964;6.086;2022-10-22T14:20:22;9.75;;;2.78;;
52414;SDS011;38340;52.964;6.086;2022-10-22T14:22:50;12.18;;;2.83;;
52414;SDS011;38340;52.964;6.086;2022-10-22T14:25:17;10.38;;;2.55;;
52414;SDS011;38340;52.964;6.086;2022-10-22T14:27:45;11.40;;;3.03;;
52414;SDS011;38340;52.964;6.086;2022-10-22T14:30:19;7.82;;;2.47;;
52414;SDS011;38340;52.964;6.086;2022-10-22T14:32:47;15.07;;;3.72;;
52414;SDS011;38340;52.964;6.086;2022-10-22T14:35:14;10.75;;;3.15;;
52414;SDS011;38340;52.964;6.086;2022-10-22T14:37:43;9.55;;;2.65;;
52414;SDS011;38340;52.964;6.086;2022-10-22T14:40:10;13.88;;;2.90;;
52414;SDS011;38340;52.964;6.086;2022-10-22T14:42:39;14.35;;;3.55;;
52414;SDS011;38340;52.964;6.086;2022-10-22T14:45:16;13.55;;;3.45;;
52414;SDS011;38340;52.964;6.086;2022-10-22T14:47:44;11.00;;;2.72;;
52414;SDS011;38340;52.964;6.086;2022-10-22T14:50:10;12.35;;;2.95;;
52414;SDS011;38340;52.964;6.086;2022-10-22T14:52:36;11.35;;;3.40;;
52414;SDS011;38340;52.964;6.086;2022-10-22T14:55:02;15.75;;;3.60;;
52414;SDS011;38340;52.964;6.086;2022-10-22T14:57:28;14.27;;;3.38;;
52414;SDS011;38340;52.964;6.086;2022-10-22T14:59:53;14.43;;;3.53;;
52414;SDS011;38340;52.964;6.086;2022-10-22T15:02:19;12.63;;;3.63;;
52414;SDS011;38340;52.964;6.086;2022-10-22T15:04:45;9.20;;;3.15;;
52414;SDS011;38340;52.964;6.086;2022-10-22T15:07:12;11.57;;;2.92;;
52414;SDS011;38340;52.964;6.086;2022-10-22T15:09:38;9.95;;;3.30;;
52414;SDS011;38340;52.964;6.086;2022-10-22T15:12:04;10.77;;;2.95;;
52414;SDS011;38340;52.964;6.086;2022-10-22T15:14:30;18.38;;;3.30;;
52414;SDS011;38340;52.964;6.086;2022-10-22T15:16:56;16.77;;;3.53;;
52414;SDS011;38340;52.964;6.086;2022-10-22T15:19:21;15.90;;;3.40;;
52414;SDS011;38340;52.964;6.086;2022-10-22T15:21:47;13.93;;;3.72;;
52414;SDS011;38340;52.964;6.086;2022-10-22T15:24:13;13.43;;;3.42;;
52414;SDS011;38340;52.964;6.086;2022-10-22T15:26:38;10.82;;;3.50;;
52414;SDS011;38340;52.964;6.086;2022-10-22T15:29:04;12.38;;;3.25;;
52414;SDS011;38340;52.964;6.086;2022-10-22T15:36:56;14.88;;;3.65;;
52414;SDS011;38340;52.964;6.086;2022-10-22T15:39:23;15.43;;;3.95;;
52414;SDS011;38340;52.964;6.086;2022-10-22T15:41:50;14.65;;;3.75;;
52414;SDS011;38340;52.964;6.086;2022-10-22T15:44:17;16.52;;;3.40;;
52414;SDS011;38340;52.964;6.086;2022-10-22T15:46:45;18.38;;;3.78;;
52414;SDS011;38340;52.964;6.086;2022-10-22T15:49:11;13.52;;;4.15;;
52414;SDS011;38340;52.964;6.086;2022-10-22T15:51:37;14.15;;;3.17;;
52414;SDS011;38340;52.964;6.086;2022-10-22T15:54:04;9.52;;;3.38;;
52414;SDS011;38340;52.964;6.086;2022-10-22T15:56:30;13.35;;;3.72;;
52414;SDS011;38340;52.964;6.086;2022-10-22T15:58:57;17.05;;;4.00;;
52414;SDS011;38340;52.964;6.086;2022-10-22T16:01:24;16.15;;;4.53;;
52414;SDS011;38340;52.964;6.086;2022-10-22T16:03:51;11.52;;;3.97;;
52414;SDS011;38340;52.964;6.086;2022-10-22T16:06:28;18.90;;;5.47;;
52414;SDS011;38340;52.964;6.086;2022-10-22T16:08:56;21.23;;;6.05;;
52414;SDS011;38340;52.964;6.086;2022-10-22T16:11:23;16.17;;;7.35;;
52414;SDS011;38340;52.964;6.086;2022-10-22T16:13:56;17.23;;;6.18;;
52414;SDS011;38340;52.964;6.086;2022-10-22T16:16:24;19.35;;;5.20;;
52414;SDS011;38340;52.964;6.086;2022-10-22T16:18:50;16.67;;;4.95;;
52414;SDS011;38340;52.964;6.086;2022-10-22T16:21:17;26.38;;;5.32;;
52414;SDS011;38340;52.964;6.086;2022-10-22T16:23:44;15.38;;;4.28;;
52414;SDS011;38340;52.964;6.086;2022-10-22T16:26:10;15.50;;;4.43;;
52414;SDS011;38340;52.964;6.086;2022-10-22T16:28:37;13.82;;;3.80;;
52414;SDS011;38340;52.964;6.086;2022-10-22T16:31:04;13.60;;;4.90;;
52414;SDS011;38340;52.964;6.086;2022-10-22T16:33:33;12.45;;;3.65;;
52414;SDS011;38340;52.964;6.086;2022-10-22T16:35:59;11.95;;;4.32;;
52414;SDS011;38340;52.964;6.086;2022-10-22T16:38:25;17.35;;;3.60;;
52414;SDS011;38340;52.964;6.086;2022-10-22T16:40:52;17.75;;;4.63;;
52414;SDS011;38340;52.964;6.086;2022-10-22T16:43:17;16.45;;;5.60;;
52414;SDS011;38340;52.964;6.086;2022-10-22T16:45:49;16.80;;;5.07;;